Select your language:
Crown of King Zvonimir race, Solin CRO   Hier könnte ihre Werbung stehen!  
  年代別階級:   国:   平均速度:   年代別カテゴリー:   
開催日: 22.08.2025 Send Link
大会名: 4° Canajagua Ultra Trail (PAN) この大会の詳細。
距離: 55km トレイルレース この大会の歴代記録.
完走者: 67 (53 男子, 14 女子) 複数回完走者.
ランキング対象: いいえ
情報提供元: リンク (当時の情報提供元。)
記載者: Chang, Wenhui     08.05.2026 13:41
 
67検索結果 
順位 記録 姓, 名 所属 国籍 生年 男/女 男女別順位 年代別階級 年代別順位 平均速度 km/h 年齢補正済記録
1 6:24:11 時間   Cedeno Gonzalez, Jose Euribiades   PAN  1992 男子 1 M23  1 8.590 6:24:07 時間
2 6:36:42 時間   Gutierrez, Francisco   CHI  1983 男子 2 M40  1 8.319 6:21:45 時間
3 6:44:34 時間   Varcasia, Jose   ITA  1986 男子 3 M35  1 8.157 6:37:18 時間
4 6:59:04 時間   Pastor Ramos Herrera, Justo   PAN  1994 男子 4 M23  2 7.875 6:59:04 時間
5 7:35:57 時間   Bontemps, Damien   FRA  1986 男子 5 M35  2 7.238 7:27:45 時間
6 7:37:34 時間   Rodriguez, Diana   PAN  1983 女子 1 W40  1 7.212 7:23:56 時間
7 7:52:47 時間   Baccarani, Gabriella   PAN  1989 女子 2 W35  1 6.980 7:50:57 時間
8 7:53:52 時間   Coronado, Maickol   PAN  1983 男子 6 M40  2 6.964 7:36:01 時間
9 7:59:52 時間   Labella, Rodrigo   ARG  1988 男子 7 M35  3 6.877 7:55:36 時間
10 8:15:57 時間   Emmanuel Lopez, Rodrigo   PAN  1985 男子 8 M35  4 6.654 8:04:09 時間
11 8:17:04 時間   Alberto Zuniga Escobar, Carlos   PAN  2001 男子 9 M23  3 6.639 8:17:04 時間
12 8:22:08 時間   Chiari, Alfredo   PAN  1995 男子 10 M23  4 6.572 8:22:08 時間
13 8:23:51 時間   Mata, Cristina   PAN  1986 女子 3 W35  2 6.550 8:16:54 時間
14 8:43:49 時間   Mandarakas, Chemi   PAN  1972 男子 11 M50  1 6.300 7:39:14 時間
15 8:47:58 時間   Gil, Adin   PAN  1994 男子 12 M23  5 6.250 8:47:58 時間
16 8:50:56 時間   Angel Baules, Jose   PAN  1979 男子 13 M45  1 6.215 8:14:22 時間
17 8:58:53 時間   de la Rosa Lasa, David Enrique   PAN  1999 男子 14 M23  6 6.124 8:58:53 時間
18 9:01:21 時間   Pomares, Crescencio   PAN  1993 男子 15 M23  7 6.096 9:01:21 時間
19 9:09:34 時間   McPherson, Guillermo   PAN  1997 男子 16 M23  8 6.005 9:09:34 時間
20 9:10:57 時間   Dominguez Gonzalez, Evaristo Javier   PAN  1969 男子 17 M55  1 5.990 7:50:08 時間
21 9:11:02 時間   Lasa, Ignacio   PAN  1972 男子 18 M50  2 5.989 8:03:06 時間
22 9:12:53 時間   Bontemps, Johnny   USA  1984 男子 19 M40  3 5.969 8:56:05 時間
23 9:14:33 時間   Lucia Arciniegas, Ana   PAN  1994 女子 4 W23  1 5.951 9:14:33 時間
24 9:20:51 時間   Escudero, Ivan   PAN  1976 男子 20 M45  2 5.884 8:29:09 時間
25 9:24:41 時間   Lemma, Emmanuel   ARG  1983 男子 21 M40  4 5.844 9:03:24 時間
26 9:31:04 時間   Vergara, Joseph   PAN  1997 男子 22 M23  9 5.779 9:31:04 時間
27 9:42:44 時間   Reyes, Jefferson   PAN  1999 男子 23 M23  10 5.663 9:42:44 時間
28 9:45:32 時間   Caballero, Rodrigo   PAN  1993 男子 24 M23  11 5.636 9:45:32 時間
29 9:51:58 時間   Gonzalez Macias, Alexander   PAN  1991 男子 25 M23  12 5.575 9:51:16 時間
30 9:53:28 時間   de la Cruz, Ezequiel Enrique   PAN  1986 男子 26 M35  5 5.561 9:42:48 時間
31 10:04:55 時間   Vegas, Pedro   VEN  1980 男子 27 M40  5 5.455 9:27:58 時間
32 10:07:30 時間   Cordon, Mario   PAN  1985 男子 28 M35  6 5.432 9:53:03 時間
33 10:08:39 時間   Barria, Angel   PAN  1991 男子 29 M23  13 5.422 10:07:56 時間
34 10:10:46 時間   Cabassa, Pia Gabriela   PAN  1993 女子 5 W23  2 5.403 10:10:46 時間
35 10:11:34 時間   Morales, Henry   PAN  1977 男子 30 M45  3 5.396 9:19:58 時間
36 10:14:07 時間   Vega, Franklin   PAN  1979 男子 31 M45  4 5.374 9:31:49 時間
37 10:22:00 時間   Bennett, Irving   PAN  1961 男子 32 M60  1 5.305 8:12:04 時間
38 10:22:57 時間   Lorenzo Avila, Juan David   PAN  1990 男子 33 M23  14 5.297 10:21:09 時間
39 10:25:03 時間   Smith, Francisco   PAN  1985 男子 34 M35  7 5.280 10:10:11 時間
40 10:30:02 時間   Diaz, Jorge   PAN  1975 男子 35 M45  5 5.238 9:27:02 時間
41 10:33:12 時間   Yerel Nunez, Ramses   PAN  1992 男子 36 M23  15 5.212 10:33:05 時間
42 10:48:17 時間   Luis Binda, Jose   PAN  1978 男子 37 M45  6 5.090 9:58:38 時間
43 10:49:40 時間   Garcia Dominguez, Felipe   PAN  1971 男子 38 M50  3 5.080 9:24:30 時間
44 10:49:41 時間   Rincon, Christopher   PAN  1985 男子 39 M35  8 5.079 10:34:14 時間
45 10:52:20 時間   Quintero, Danny   PAN  1973 男子 40 M50  4 5.059 9:37:00 時間
46 10:52:50 時間   Londono Salinas, Alexandra   PAN  1989 女子 6 W35  3 5.055 10:48:36 時間
47 10:53:04 時間   Puga Espino, Carlos Alberto   PAN  1977 男子 41 M45  7 5.053 9:57:57 時間
48 10:53:33 時間   Chuljak, Carlos   PAN  1993 男子 42 M23  16 5.049 10:53:33 時間
49 10:53:41 時間   Madrid, Sileska   PAN  1981 女子 7 W40  2 5.048 10:25:04 時間
50 10:57:16 時間   Montecer, Manuel   PAN  1971 男子 43 M50  5 5.021 9:31:06 時間
51 11:05:02 時間   Pitti Ortiz, Maximo   PAN  1977 男子 44 M45  8 4.962 10:08:55 時間
52 11:09:18 時間   Gonzalez, Leython   PAN  1997 男子 45 M23  17 4.931 11:09:18 時間
53 11:10:36 時間   Caez Rivera, Sara   PUR  1975 女子 8 W45  1 4.921 10:02:20 時間
54 11:34:33 時間   Rodriguez Rivas, Fidel   PAN  1981 男子 46 M40  6 4.751 10:57:32 時間
55 11:43:26 時間   Ortega, Katherine   PAN  1989 女子 9 W35  4 4.691 11:40:42 時間
56 11:43:35 時間   Machado, Adrian   PAN  1990 男子 47 M23  18 4.690 11:41:33 時間
57 11:43:37 時間   Paola Hernandez Rojas, Jenny   COL  1987 女子 10 W35  5 4.690 11:36:44 時間
58 11:45:27 時間   Perez, Apsalon   PAN  1999 男子 48 M23  19 4.678 11:45:27 時間
59 11:45:43 時間   Ibanez, Hernando   PAN  1973 男子 49 M50  6 4.676 10:24:13 時間
60 11:45:50 時間   Gonzalez, Sarah   PAN  1987 女子 11 W35  6 4.675 11:38:55 時間
61 11:46:00 時間   Martinez, Raquel   PAN  1982 女子 12 W40  3 4.674 11:20:14 時間
62 11:46:12 時間   Con, Luis   PAN  2001 男子 50 M23  20 4.673 11:46:12 時間
63 12:23:11 時間   Rojas, Gisela Tamara   PAN  1970 女子 13 W50  1 4.440 10:26:26 時間
64 12:24:00 時間   Aizprua, Jocelyn   PAN  1989 女子 14 W35  7 4.435 12:21:06 時間
65 12:55:00 時間   Vasquez, Augusto   PAN  1998 男子 51 M23  21 4.258 12:55:00 時間
66 13:03:00 時間   Atehortua, Shoshann   PAN  1984 男子 52 M40  7 4.215 12:39:12 時間
67 13:03:02 時間   Frias, David   PAN  1993 男子 53 M23  22 4.214 13:03:02 時間